sensor_id;sensor_type;location;lat;lon;timestamp;temperature;humidity
67820;DHT22;54618;52.018;5.576;2022-08-25T00:01:14;22.90;67.90
67820;DHT22;54618;52.018;5.576;2022-08-25T00:03:41;22.90;67.90
67820;DHT22;54618;52.018;5.576;2022-08-25T00:06:08;22.90;67.90
67820;DHT22;54618;52.018;5.576;2022-08-25T00:08:35;22.90;67.90
67820;DHT22;54618;52.018;5.576;2022-08-25T00:11:04;22.90;67.90
67820;DHT22;54618;52.018;5.576;2022-08-25T00:13:31;22.90;68.00
67820;DHT22;54618;52.018;5.576;2022-08-25T00:15:57;22.90;68.00
67820;DHT22;54618;52.018;5.576;2022-08-25T00:18:23;22.90;68.00
67820;DHT22;54618;52.018;5.576;2022-08-25T00:20:49;22.90;68.00
67820;DHT22;54618;52.018;5.576;2022-08-25T00:23:14;22.90;68.00
67820;DHT22;54618;52.018;5.576;2022-08-25T00:25:40;22.90;68.10
67820;DHT22;54618;52.018;5.576;2022-08-25T00:28:06;22.90;68.00
67820;DHT22;54618;52.018;5.576;2022-08-25T00:30:31;22.90;68.10
67820;DHT22;54618;52.018;5.576;2022-08-25T00:32:57;22.90;68.10
67820;DHT22;54618;52.018;5.576;2022-08-25T00:35:24;22.90;68.10
67820;DHT22;54618;52.018;5.576;2022-08-25T00:37:50;22.90;68.10
67820;DHT22;54618;52.018;5.576;2022-08-25T00:40:15;22.90;68.10
67820;DHT22;54618;52.018;5.576;2022-08-25T00:42:41;22.90;68.10
67820;DHT22;54618;52.018;5.576;2022-08-25T00:45:07;22.90;68.10
67820;DHT22;54618;52.018;5.576;2022-08-25T00:47:34;22.90;68.10
67820;DHT22;54618;52.018;5.576;2022-08-25T00:50:02;22.90;68.10
67820;DHT22;54618;52.018;5.576;2022-08-25T00:52:51;22.90;68.10
67820;DHT22;54618;52.018;5.576;2022-08-25T00:55:25;22.90;68.20
67820;DHT22;54618;52.018;5.576;2022-08-25T00:58:04;22.90;68.20
67820;DHT22;54618;52.018;5.576;2022-08-25T01:00:38;22.90;68.20
67820;DHT22;54618;52.018;5.576;2022-08-25T01:03:04;22.90;68.20
67820;DHT22;54618;52.018;5.576;2022-08-25T01:05:31;22.90;68.20
67820;DHT22;54618;52.018;5.576;2022-08-25T01:07:58;22.90;68.20
67820;DHT22;54618;52.018;5.576;2022-08-25T01:10:29;22.90;68.20
67820;DHT22;54618;52.018;5.576;2022-08-25T01:13:00;22.90;68.30
67820;DHT22;54618;52.018;5.576;2022-08-25T01:15:27;22.90;68.30
67820;DHT22;54618;52.018;5.576;2022-08-25T01:17:55;22.90;68.30
67820;DHT22;54618;52.018;5.576;2022-08-25T01:20:24;22.90;68.30
67820;DHT22;54618;52.018;5.576;2022-08-25T01:22:50;22.90;68.30
67820;DHT22;54618;52.018;5.576;2022-08-25T01:27:50;22.90;68.30
67820;DHT22;54618;52.018;5.576;2022-08-25T01:30:16;22.90;68.40
67820;DHT22;54618;52.018;5.576;2022-08-25T01:32:42;22.90;68.40
67820;DHT22;54618;52.018;5.576;2022-08-25T01:35:07;22.90;68.40
67820;DHT22;54618;52.018;5.576;2022-08-25T01:37:34;22.80;68.90
67820;DHT22;54618;52.018;5.576;2022-08-25T01:40:04;22.80;68.40
67820;DHT22;54618;52.018;5.576;2022-08-25T01:42:57;22.90;68.40
67820;DHT22;54618;52.018;5.576;2022-08-25T01:45:27;22.90;68.40
67820;DHT22;54618;52.018;5.576;2022-08-25T01:47:53;22.90;68.40
67820;DHT22;54618;52.018;5.576;2022-08-25T01:50:19;22.90;68.40
67820;DHT22;54618;52.018;5.576;2022-08-25T01:53:11;22.90;68.40
67820;DHT22;54618;52.018;5.576;2022-08-25T01:55:39;22.90;68.40
67820;DHT22;54618;52.018;5.576;2022-08-25T01:58:18;22.90;68.50
67820;DHT22;54618;52.018;5.576;2022-08-25T02:00:46;22.90;68.40
67820;DHT22;54618;52.018;5.576;2022-08-25T02:03:12;22.90;68.40
67820;DHT22;54618;52.018;5.576;2022-08-25T02:05:38;22.90;68.50
67820;DHT22;54618;52.018;5.576;2022-08-25T02:08:03;22.90;68.50
67820;DHT22;54618;52.018;5.576;2022-08-25T02:10:31;22.80;68.40
67820;DHT22;54618;52.018;5.576;2022-08-25T02:12:56;22.90;68.50
67820;DHT22;54618;52.018;5.576;2022-08-25T02:15:22;22.90;68.50
67820;DHT22;54618;52.018;5.576;2022-08-25T02:17:48;22.80;68.40
67820;DHT22;54618;52.018;5.576;2022-08-25T02:20:13;22.90;68.50
67820;DHT22;54618;52.018;5.576;2022-08-25T02:22:39;22.90;68.50
67820;DHT22;54618;52.018;5.576;2022-08-25T02:25:05;22.90;68.60
67820;DHT22;54618;52.018;5.576;2022-08-25T02:27:31;22.90;68.50
67820;DHT22;54618;52.018;5.576;2022-08-25T02:29:57;22.80;68.50
67820;DHT22;54618;52.018;5.576;2022-08-25T02:32:22;22.90;69.10
67820;DHT22;54618;52.018;5.576;2022-08-25T02:34:48;22.90;68.60
67820;DHT22;54618;52.018;5.576;2022-08-25T02:37:14;22.90;68.60
67820;DHT22;54618;52.018;5.576;2022-08-25T02:39:39;22.90;68.60
67820;DHT22;54618;52.018;5.576;2022-08-25T02:42:05;22.90;68.60
67820;DHT22;54618;52.018;5.576;2022-08-25T02:44:31;22.90;68.50
67820;DHT22;54618;52.018;5.576;2022-08-25T02:46:57;22.90;68.60
67820;DHT22;54618;52.018;5.576;2022-08-25T02:49:23;22.90;68.60
67820;DHT22;54618;52.018;5.576;2022-08-25T02:51:48;22.90;68.60
67820;DHT22;54618;52.018;5.576;2022-08-25T02:54:14;22.90;68.60
67820;DHT22;54618;52.018;5.576;2022-08-25T02:56:40;22.90;68.60
67820;DHT22;54618;52.018;5.576;2022-08-25T02:59:07;22.90;68.60
67820;DHT22;54618;52.018;5.576;2022-08-25T03:01:32;22.90;68.70
67820;DHT22;54618;52.018;5.576;2022-08-25T03:03:59;22.90;68.60
67820;DHT22;54618;52.018;5.576;2022-08-25T03:06:27;22.90;68.60
67820;DHT22;54618;52.018;5.576;2022-08-25T03:08:53;22.90;68.60
67820;DHT22;54618;52.018;5.576;2022-08-25T03:11:20;22.90;68.60
67820;DHT22;54618;52.018;5.576;2022-08-25T03:13:46;22.90;68.60
67820;DHT22;54618;52.018;5.576;2022-08-25T03:16:14;22.80;68.50
67820;DHT22;54618;52.018;5.576;2022-08-25T03:18:40;22.90;68.60
67820;DHT22;54618;52.018;5.576;2022-08-25T03:21:06;22.90;68.50
67820;DHT22;54618;52.018;5.576;2022-08-25T03:23:33;22.90;68.50
67820;DHT22;54618;52.018;5.576;2022-08-25T03:25:58;22.90;68.50
67820;DHT22;54618;52.018;5.576;2022-08-25T03:28:43;22.90;68.50
67820;DHT22;54618;52.018;5.576;2022-08-25T03:31:08;22.90;68.50
67820;DHT22;54618;52.018;5.576;2022-08-25T03:33:35;22.90;68.50
67820;DHT22;54618;52.018;5.576;2022-08-25T03:36:01;22.80;68.40
67820;DHT22;54618;52.018;5.576;2022-08-25T03:38:27;22.90;68.50
67820;DHT22;54618;52.018;5.576;2022-08-25T03:40:52;22.80;68.40
67820;DHT22;54618;52.018;5.576;2022-08-25T03:43:19;22.80;68.40
67820;DHT22;54618;52.018;5.576;2022-08-25T03:45:45;22.80;68.40
67820;DHT22;54618;52.018;5.576;2022-08-25T03:48:12;22.80;68.40
67820;DHT22;54618;52.018;5.576;2022-08-25T03:50:47;22.80;68.30
67820;DHT22;54618;52.018;5.576;2022-08-25T03:53:13;22.80;68.30
67820;DHT22;54618;52.018;5.576;2022-08-25T03:55:39;22.80;68.30
67820;DHT22;54618;52.018;5.576;2022-08-25T03:58:04;22.80;68.30
67820;DHT22;54618;52.018;5.576;2022-08-25T04:00:31;22.80;68.30
67820;DHT22;54618;52.018;5.576;2022-08-25T04:02:57;22.80;68.30
67820;DHT22;54618;52.018;5.576;2022-08-25T04:05:22;22.80;68.30
67820;DHT22;54618;52.018;5.576;2022-08-25T04:07:48;22.80;68.40
67820;DHT22;54618;52.018;5.576;2022-08-25T04:10:14;22.80;68.30
67820;DHT22;54618;52.018;5.576;2022-08-25T04:12:40;22.80;68.30
67820;DHT22;54618;52.018;5.576;2022-08-25T04:15:07;22.80;68.20
67820;DHT22;54618;52.018;5.576;2022-08-25T04:17:37;22.80;68.20
67820;DHT22;54618;52.018;5.576;2022-08-25T04:20:04;22.80;68.20
67820;DHT22;54618;52.018;5.576;2022-08-25T04:22:30;22.80;68.20
67820;DHT22;54618;52.018;5.576;2022-08-25T04:24:58;22.80;68.20
67820;DHT22;54618;52.018;5.576;2022-08-25T04:27:23;22.80;68.20
67820;DHT22;54618;52.018;5.576;2022-08-25T04:29:49;22.80;68.20
67820;DHT22;54618;52.018;5.576;2022-08-25T04:32:14;22.80;68.10
67820;DHT22;54618;52.018;5.576;2022-08-25T04:34:40;22.80;68.10
67820;DHT22;54618;52.018;5.576;2022-08-25T04:37:08;22.80;68.10
67820;DHT22;54618;52.018;5.576;2022-08-25T04:39:34;22.80;68.00
67820;DHT22;54618;52.018;5.576;2022-08-25T04:42:00;22.80;68.10
67820;DHT22;54618;52.018;5.576;2022-08-25T04:44:27;22.80;68.00
67820;DHT22;54618;52.018;5.576;2022-08-25T04:46:53;22.80;67.90
67820;DHT22;54618;52.018;5.576;2022-08-25T04:49:18;22.80;67.90
67820;DHT22;54618;52.018;5.576;2022-08-25T04:51:44;22.80;67.90
67820;DHT22;54618;52.018;5.576;2022-08-25T04:54:14;22.80;67.90
67820;DHT22;54618;52.018;5.576;2022-08-25T04:56:42;22.80;67.80
67820;DHT22;54618;52.018;5.576;2022-08-25T04:59:11;22.80;67.80
67820;DHT22;54618;52.018;5.576;2022-08-25T05:01:38;22.80;67.80
67820;DHT22;54618;52.018;5.576;2022-08-25T05:04:06;22.80;67.80
67820;DHT22;54618;52.018;5.576;2022-08-25T05:06:33;22.80;67.80
67820;DHT22;54618;52.018;5.576;2022-08-25T05:08:59;22.80;67.80
67820;DHT22;54618;52.018;5.576;2022-08-25T05:11:26;22.80;67.80
67820;DHT22;54618;52.018;5.576;2022-08-25T05:13:54;22.80;67.80
67820;DHT22;54618;52.018;5.576;2022-08-25T05:16:21;22.80;67.80
67820;DHT22;54618;52.018;5.576;2022-08-25T05:18:48;22.80;67.80
67820;DHT22;54618;52.018;5.576;2022-08-25T05:21:18;22.80;67.80
67820;DHT22;54618;52.018;5.576;2022-08-25T05:23:45;22.80;67.70
67820;DHT22;54618;52.018;5.576;2022-08-25T05:26:21;22.80;67.70
67820;DHT22;54618;52.018;5.576;2022-08-25T05:28:49;22.80;67.70
67820;DHT22;54618;52.018;5.576;2022-08-25T05:31:15;22.80;67.70
67820;DHT22;54618;52.018;5.576;2022-08-25T05:33:42;22.80;67.70
67820;DHT22;54618;52.018;5.576;2022-08-25T05:36:09;22.80;67.70
67820;DHT22;54618;52.018;5.576;2022-08-25T05:38:35;22.80;67.60
67820;DHT22;54618;52.018;5.576;2022-08-25T05:41:05;22.80;67.60
67820;DHT22;54618;52.018;5.576;2022-08-25T05:43:36;22.80;68.20
67820;DHT22;54618;52.018;5.576;2022-08-25T05:46:02;22.80;67.60
67820;DHT22;54618;52.018;5.576;2022-08-25T05:48:28;22.80;67.50
67820;DHT22;54618;52.018;5.576;2022-08-25T05:50:58;22.80;67.50
67820;DHT22;54618;52.018;5.576;2022-08-25T05:53:26;22.80;67.60
67820;DHT22;54618;52.018;5.576;2022-08-25T05:55:52;22.80;67.50
67820;DHT22;54618;52.018;5.576;2022-08-25T05:58:19;22.80;67.50
67820;DHT22;54618;52.018;5.576;2022-08-25T06:00:45;22.80;67.50
67820;DHT22;54618;52.018;5.576;2022-08-25T06:03:11;22.80;67.50
67820;DHT22;54618;52.018;5.576;2022-08-25T06:05:37;22.80;67.50
67820;DHT22;54618;52.018;5.576;2022-08-25T06:08:03;22.80;67.50
67820;DHT22;54618;52.018;5.576;2022-08-25T06:10:29;22.80;67.50
67820;DHT22;54618;52.018;5.576;2022-08-25T06:12:55;22.80;67.50
67820;DHT22;54618;52.018;5.576;2022-08-25T06:15:23;22.80;68.10
67820;DHT22;54618;52.018;5.576;2022-08-25T06:17:50;22.80;67.50
67820;DHT22;54618;52.018;5.576;2022-08-25T06:20:21;22.80;67.50
67820;DHT22;54618;52.018;5.576;2022-08-25T06:22:47;22.80;67.50
67820;DHT22;54618;52.018;5.576;2022-08-25T06:25:15;22.80;67.50
67820;DHT22;54618;52.018;5.576;2022-08-25T06:27:41;22.80;67.50
67820;DHT22;54618;52.018;5.576;2022-08-25T06:30:09;22.80;67.50
67820;DHT22;54618;52.018;5.576;2022-08-25T06:32:38;22.80;67.50
67820;DHT22;54618;52.018;5.576;2022-08-25T06:35:05;22.80;67.50
67820;DHT22;54618;52.018;5.576;2022-08-25T06:37:32;22.80;67.50
67820;DHT22;54618;52.018;5.576;2022-08-25T06:39:58;22.80;67.50
67820;DHT22;54618;52.018;5.576;2022-08-25T06:42:23;22.80;67.60
67820;DHT22;54618;52.018;5.576;2022-08-25T06:44:49;22.80;67.60
67820;DHT22;54618;52.018;5.576;2022-08-25T06:47:15;22.80;67.60
67820;DHT22;54618;52.018;5.576;2022-08-25T06:49:42;22.80;67.60
67820;DHT22;54618;52.018;5.576;2022-08-25T06:52:08;22.80;67.60
67820;DHT22;54618;52.018;5.576;2022-08-25T06:54:34;22.80;67.60
67820;DHT22;54618;52.018;5.576;2022-08-25T06:56:59;22.80;67.60
67820;DHT22;54618;52.018;5.576;2022-08-25T06:59:27;22.80;67.70
67820;DHT22;54618;52.018;5.576;2022-08-25T07:01:53;22.80;67.60
67820;DHT22;54618;52.018;5.576;2022-08-25T07:04:18;22.80;67.70
67820;DHT22;54618;52.018;5.576;2022-08-25T07:06:44;22.80;67.70
67820;DHT22;54618;52.018;5.576;2022-08-25T07:09:11;22.80;67.70
67820;DHT22;54618;52.018;5.576;2022-08-25T07:11:41;22.80;67.70
67820;DHT22;54618;52.018;5.576;2022-08-25T07:14:10;22.80;67.70
67820;DHT22;54618;52.018;5.576;2022-08-25T07:16:37;22.80;67.70
67820;DHT22;54618;52.018;5.576;2022-08-25T07:19:03;22.90;67.70
67820;DHT22;54618;52.018;5.576;2022-08-25T07:21:32;22.80;67.70
67820;DHT22;54618;52.018;5.576;2022-08-25T07:23:59;22.80;67.70
67820;DHT22;54618;52.018;5.576;2022-08-25T07:26:28;22.80;67.70
67820;DHT22;54618;52.018;5.576;2022-08-25T07:28:54;22.80;67.70
67820;DHT22;54618;52.018;5.576;2022-08-25T07:31:20;22.80;67.70
67820;DHT22;54618;52.018;5.576;2022-08-25T07:33:46;22.80;68.30
67820;DHT22;54618;52.018;5.576;2022-08-25T07:36:33;22.80;67.70
67820;DHT22;54618;52.018;5.576;2022-08-25T07:38:59;22.80;67.70
67820;DHT22;54618;52.018;5.576;2022-08-25T07:41:25;22.80;67.70
67820;DHT22;54618;52.018;5.576;2022-08-25T07:43:51;22.80;67.60
67820;DHT22;54618;52.018;5.576;2022-08-25T07:46:17;22.80;67.70
67820;DHT22;54618;52.018;5.576;2022-08-25T07:48:43;22.80;67.60
67820;DHT22;54618;52.018;5.576;2022-08-25T07:51:10;22.80;67.60
67820;DHT22;54618;52.018;5.576;2022-08-25T07:53:36;22.80;67.70
67820;DHT22;54618;52.018;5.576;2022-08-25T07:56:09;22.90;67.70
67820;DHT22;54618;52.018;5.576;2022-08-25T07:58:35;22.90;67.70
67820;DHT22;54618;52.018;5.576;2022-08-25T08:01:02;22.80;67.70
67820;DHT22;54618;52.018;5.576;2022-08-25T08:03:28;22.90;67.70
67820;DHT22;54618;52.018;5.576;2022-08-25T08:05:54;22.80;67.70
67820;DHT22;54618;52.018;5.576;2022-08-25T08:08:21;22.90;67.80
67820;DHT22;54618;52.018;5.576;2022-08-25T08:10:47;22.90;67.80
67820;DHT22;54618;52.018;5.576;2022-08-25T08:13:12;22.90;67.80
67820;DHT22;54618;52.018;5.576;2022-08-25T08:15:41;22.80;67.70
67820;DHT22;54618;52.018;5.576;2022-08-25T08:18:07;22.90;67.80
67820;DHT22;54618;52.018;5.576;2022-08-25T08:20:32;22.90;67.80
67820;DHT22;54618;52.018;5.576;2022-08-25T08:22:59;22.90;67.80
67820;DHT22;54618;52.018;5.576;2022-08-25T08:25:24;22.90;67.80
67820;DHT22;54618;52.018;5.576;2022-08-25T08:27:50;22.90;67.80
67820;DHT22;54618;52.018;5.576;2022-08-25T08:30:16;22.90;67.80
67820;DHT22;54618;52.018;5.576;2022-08-25T08:32:42;22.90;67.80
67820;DHT22;54618;52.018;5.576;2022-08-25T08:35:08;22.90;67.80
67820;DHT22;54618;52.018;5.576;2022-08-25T08:37:34;22.90;67.80
67820;DHT22;54618;52.018;5.576;2022-08-25T08:40:05;22.90;67.80
67820;DHT22;54618;52.018;5.576;2022-08-25T08:42:39;22.90;67.80
67820;DHT22;54618;52.018;5.576;2022-08-25T08:50:33;22.90;67.90
67820;DHT22;54618;52.018;5.576;2022-08-25T08:55:42;22.90;67.80
67820;DHT22;54618;52.018;5.576;2022-08-25T08:58:23;22.90;67.80
67820;DHT22;54618;52.018;5.576;2022-08-25T09:00:52;22.90;67.70
67820;DHT22;54618;52.018;5.576;2022-08-25T09:03:38;22.90;67.70
67820;DHT22;54618;52.018;5.576;2022-08-25T09:06:10;22.90;67.70
67820;DHT22;54618;52.018;5.576;2022-08-25T09:08:38;22.90;67.70
67820;DHT22;54618;52.018;5.576;2022-08-25T09:11:22;22.90;67.70
67820;DHT22;54618;52.018;5.576;2022-08-25T09:14:02;22.90;67.70
67820;DHT22;54618;52.018;5.576;2022-08-25T09:25:59;22.90;67.50
67820;DHT22;54618;52.018;5.576;2022-08-25T09:28:54;22.90;67.40
67820;DHT22;54618;52.018;5.576;2022-08-25T09:31:25;22.90;67.40
67820;DHT22;54618;52.018;5.576;2022-08-25T09:33:55;22.90;67.40
67820;DHT22;54618;52.018;5.576;2022-08-25T09:36:22;22.90;67.40
67820;DHT22;54618;52.018;5.576;2022-08-25T09:38:48;22.90;67.40
67820;DHT22;54618;52.018;5.576;2022-08-25T09:41:33;22.90;67.40
67820;DHT22;54618;52.018;5.576;2022-08-25T09:43:59;22.90;67.40
67820;DHT22;54618;52.018;5.576;2022-08-25T09:46:27;22.90;67.30
67820;DHT22;54618;52.018;5.576;2022-08-25T09:48:57;22.90;67.30
67820;DHT22;54618;52.018;5.576;2022-08-25T09:51:37;22.90;67.30
67820;DHT22;54618;52.018;5.576;2022-08-25T09:59:28;23.00;67.30
67820;DHT22;54618;52.018;5.576;2022-08-25T10:01:58;23.00;67.30
67820;DHT22;54618;52.018;5.576;2022-08-25T10:04:35;23.00;67.30
67820;DHT22;54618;52.018;5.576;2022-08-25T10:07:23;23.00;67.30
67820;DHT22;54618;52.018;5.576;2022-08-25T10:09:52;23.00;67.30
67820;DHT22;54618;52.018;5.576;2022-08-25T10:12:28;23.00;67.30
67820;DHT22;54618;52.018;5.576;2022-08-25T10:14:54;23.00;67.20
67820;DHT22;54618;52.018;5.576;2022-08-25T10:17:31;23.00;67.20
67820;DHT22;54618;52.018;5.576;2022-08-25T10:22:36;23.00;67.20
67820;DHT22;54618;52.018;5.576;2022-08-25T10:25:04;23.00;67.20
67820;DHT22;54618;52.018;5.576;2022-08-25T10:27:59;23.00;67.20
67820;DHT22;54618;52.018;5.576;2022-08-25T10:30:49;23.00;67.20
67820;DHT22;54618;52.018;5.576;2022-08-25T10:36:13;23.00;67.20
67820;DHT22;54618;52.018;5.576;2022-08-25T10:41:28;23.00;67.20
67820;DHT22;54618;52.018;5.576;2022-08-25T10:50:50;23.00;67.10
67820;DHT22;54618;52.018;5.576;2022-08-25T10:56:17;23.00;67.00
67820;DHT22;54618;52.018;5.576;2022-08-25T11:04:38;23.00;67.00
67820;DHT22;54618;52.018;5.576;2022-08-25T11:07:24;23.00;66.90
67820;DHT22;54618;52.018;5.576;2022-08-25T11:09:56;23.00;66.90
67820;DHT22;54618;52.018;5.576;2022-08-25T11:12:30;23.00;66.90
67820;DHT22;54618;52.018;5.576;2022-08-25T11:15:30;23.00;66.90
67820;DHT22;54618;52.018;5.576;2022-08-25T11:18:06;23.00;66.90
67820;DHT22;54618;52.018;5.576;2022-08-25T11:20:48;23.00;66.90
67820;DHT22;54618;52.018;5.576;2022-08-25T11:23:24;23.00;66.90
67820;DHT22;54618;52.018;5.576;2022-08-25T11:25:53;23.00;66.80
67820;DHT22;54618;52.018;5.576;2022-08-25T11:31:09;23.00;66.80
67820;DHT22;54618;52.018;5.576;2022-08-25T11:33:36;23.00;66.80
67820;DHT22;54618;52.018;5.576;2022-08-25T11:49:24;23.00;66.70
67820;DHT22;54618;52.018;5.576;2022-08-25T11:51:54;23.00;66.60
67820;DHT22;54618;52.018;5.576;2022-08-25T11:54:36;23.00;66.70
67820;DHT22;54618;52.018;5.576;2022-08-25T11:57:09;23.00;66.90
67820;DHT22;54618;52.018;5.576;2022-08-25T12:02:39;23.00;66.60
67820;DHT22;54618;52.018;5.576;2022-08-25T12:10:54;23.00;66.60
67820;DHT22;54618;52.018;5.576;2022-08-25T12:16:04;23.00;66.60
67820;DHT22;54618;52.018;5.576;2022-08-25T12:38:10;23.00;66.50
67820;DHT22;54618;52.018;5.576;2022-08-25T12:41:09;23.00;66.50
67820;DHT22;54618;52.018;5.576;2022-08-25T12:43:39;23.00;66.50
67820;DHT22;54618;52.018;5.576;2022-08-25T12:48:57;23.00;66.50
67820;DHT22;54618;52.018;5.576;2022-08-25T12:53:53;23.00;66.50
67820;DHT22;54618;52.018;5.576;2022-08-25T12:56:31;23.00;66.50
67820;DHT22;54618;52.018;5.576;2022-08-25T13:01:49;23.00;66.50
67820;DHT22;54618;52.018;5.576;2022-08-25T13:06:52;23.00;66.50
67820;DHT22;54618;52.018;5.576;2022-08-25T13:12:17;23.00;66.50
67820;DHT22;54618;52.018;5.576;2022-08-25T13:14:56;23.00;66.50
67820;DHT22;54618;52.018;5.576;2022-08-25T13:17:27;23.00;66.50
67820;DHT22;54618;52.018;5.576;2022-08-25T13:20:21;23.00;66.50
67820;DHT22;54618;52.018;5.576;2022-08-25T13:22:49;23.00;66.50
67820;DHT22;54618;52.018;5.576;2022-08-25T13:25:21;23.00;66.50
67820;DHT22;54618;52.018;5.576;2022-08-25T13:27:55;23.00;66.50
67820;DHT22;54618;52.018;5.576;2022-08-25T13:30:27;23.00;66.50
67820;DHT22;54618;52.018;5.576;2022-08-25T13:32:53;23.00;66.50
67820;DHT22;54618;52.018;5.576;2022-08-25T13:35:27;23.00;66.50
67820;DHT22;54618;52.018;5.576;2022-08-25T13:37:53;23.00;66.50
67820;DHT22;54618;52.018;5.576;2022-08-25T13:40:26;23.00;66.50
67820;DHT22;54618;52.018;5.576;2022-08-25T13:42:57;23.00;66.50
67820;DHT22;54618;52.018;5.576;2022-08-25T13:45:26;23.00;66.50
67820;DHT22;54618;52.018;5.576;2022-08-25T13:47:53;23.00;66.50
67820;DHT22;54618;52.018;5.576;2022-08-25T13:52:58;23.00;66.50
67820;DHT22;54618;52.018;5.576;2022-08-25T13:58:13;23.00;66.50
67820;DHT22;54618;52.018;5.576;2022-08-25T14:00:45;23.00;66.50
67820;DHT22;54618;52.018;5.576;2022-08-25T14:03:41;23.00;66.50
67820;DHT22;54618;52.018;5.576;2022-08-25T14:08:42;23.00;66.50
67820;DHT22;54618;52.018;5.576;2022-08-25T14:14:09;23.00;66.50
67820;DHT22;54618;52.018;5.576;2022-08-25T14:16:59;23.00;66.50
67820;DHT22;54618;52.018;5.576;2022-08-25T14:19:25;23.00;66.50
67820;DHT22;54618;52.018;5.576;2022-08-25T14:21:52;23.00;66.50
67820;DHT22;54618;52.018;5.576;2022-08-25T14:24:21;23.00;66.50
67820;DHT22;54618;52.018;5.576;2022-08-25T14:26:47;23.00;66.50
67820;DHT22;54618;52.018;5.576;2022-08-25T14:29:14;23.00;66.50
67820;DHT22;54618;52.018;5.576;2022-08-25T14:31:43;23.00;66.50
67820;DHT22;54618;52.018;5.576;2022-08-25T14:34:17;23.00;66.50
67820;DHT22;54618;52.018;5.576;2022-08-25T14:36:44;23.00;66.50
67820;DHT22;54618;52.018;5.576;2022-08-25T14:39:10;23.00;66.50
67820;DHT22;54618;52.018;5.576;2022-08-25T14:41:38;23.00;66.50
67820;DHT22;54618;52.018;5.576;2022-08-25T14:44:05;23.00;66.50
67820;DHT22;54618;52.018;5.576;2022-08-25T14:46:42;23.10;66.50
67820;DHT22;54618;52.018;5.576;2022-08-25T14:49:11;23.00;66.50
67820;DHT22;54618;52.018;5.576;2022-08-25T14:51:39;23.00;66.50
67820;DHT22;54618;52.018;5.576;2022-08-25T14:54:11;23.00;66.50
67820;DHT22;54618;52.018;5.576;2022-08-25T14:56:38;23.00;67.10
67820;DHT22;54618;52.018;5.576;2022-08-25T14:59:04;23.00;66.50
67820;DHT22;54618;52.018;5.576;2022-08-25T15:01:29;23.00;66.50
67820;DHT22;54618;52.018;5.576;2022-08-25T15:04:19;23.00;66.50
67820;DHT22;54618;52.018;5.576;2022-08-25T15:06:45;23.00;66.50
67820;DHT22;54618;52.018;5.576;2022-08-25T15:09:15;23.00;66.50
67820;DHT22;54618;52.018;5.576;2022-08-25T15:11:43;23.00;66.50
67820;DHT22;54618;52.018;5.576;2022-08-25T15:14:11;23.00;66.50
67820;DHT22;54618;52.018;5.576;2022-08-25T15:16:43;23.00;66.50
67820;DHT22;54618;52.018;5.576;2022-08-25T15:19:12;23.00;66.50
67820;DHT22;54618;52.018;5.576;2022-08-25T15:21:42;23.00;66.40
67820;DHT22;54618;52.018;5.576;2022-08-25T15:24:10;23.00;66.40
67820;DHT22;54618;52.018;5.576;2022-08-25T15:26:59;23.00;66.40
67820;DHT22;54618;52.018;5.576;2022-08-25T15:29:27;23.00;66.30
67820;DHT22;54618;52.018;5.576;2022-08-25T15:31:54;23.00;66.40
67820;DHT22;54618;52.018;5.576;2022-08-25T15:34:20;23.00;66.20
67820;DHT22;54618;52.018;5.576;2022-08-25T15:36:46;23.00;66.20
67820;DHT22;54618;52.018;5.576;2022-08-25T15:39:12;23.00;66.20
67820;DHT22;54618;52.018;5.576;2022-08-25T15:41:38;23.10;65.80
67820;DHT22;54618;52.018;5.576;2022-08-25T15:44:05;23.10;65.60
67820;DHT22;54618;52.018;5.576;2022-08-25T15:46:33;23.20;65.60
67820;DHT22;54618;52.018;5.576;2022-08-25T15:49:00;23.20;65.60
67820;DHT22;54618;52.018;5.576;2022-08-25T15:51:26;23.20;65.70
67820;DHT22;54618;52.018;5.576;2022-08-25T15:53:52;23.20;65.70
67820;DHT22;54618;52.018;5.576;2022-08-25T15:56:18;23.30;65.70
67820;DHT22;54618;52.018;5.576;2022-08-25T15:58:46;23.30;65.70
67820;DHT22;54618;52.018;5.576;2022-08-25T16:01:14;23.30;65.70
67820;DHT22;54618;52.018;5.576;2022-08-25T16:03:40;23.30;65.70
67820;DHT22;54618;52.018;5.576;2022-08-25T16:06:05;23.40;65.70
67820;DHT22;54618;52.018;5.576;2022-08-25T16:08:32;23.40;65.60
67820;DHT22;54618;52.018;5.576;2022-08-25T16:10:58;23.40;65.70
67820;DHT22;54618;52.018;5.576;2022-08-25T16:13:24;23.40;65.60
67820;DHT22;54618;52.018;5.576;2022-08-25T16:15:49;23.40;65.60
67820;DHT22;54618;52.018;5.576;2022-08-25T16:18:15;23.40;65.60
67820;DHT22;54618;52.018;5.576;2022-08-25T16:20:45;23.40;65.70
67820;DHT22;54618;52.018;5.576;2022-08-25T16:23:12;23.40;65.60
67820;DHT22;54618;52.018;5.576;2022-08-25T16:25:39;23.50;65.70
67820;DHT22;54618;52.018;5.576;2022-08-25T16:28:06;23.40;65.70
67820;DHT22;54618;52.018;5.576;2022-08-25T16:30:32;23.40;65.60
67820;DHT22;54618;52.018;5.576;2022-08-25T16:32:58;23.50;65.70
67820;DHT22;54618;52.018;5.576;2022-08-25T16:35:24;23.50;65.70
67820;DHT22;54618;52.018;5.576;2022-08-25T16:37:50;23.50;65.60
67820;DHT22;54618;52.018;5.576;2022-08-25T16:40:16;23.50;65.70
67820;DHT22;54618;52.018;5.576;2022-08-25T16:42:43;23.50;65.70
67820;DHT22;54618;52.018;5.576;2022-08-25T16:45:10;23.50;65.60
67820;DHT22;54618;52.018;5.576;2022-08-25T16:47:36;23.50;65.60
67820;DHT22;54618;52.018;5.576;2022-08-25T16:50:04;23.50;65.60
67820;DHT22;54618;52.018;5.576;2022-08-25T16:52:32;23.50;65.60
67820;DHT22;54618;52.018;5.576;2022-08-25T16:55:16;23.50;65.60
67820;DHT22;54618;52.018;5.576;2022-08-25T16:57:45;23.50;65.60
67820;DHT22;54618;52.018;5.576;2022-08-25T17:00:14;23.50;65.50
67820;DHT22;54618;52.018;5.576;2022-08-25T17:02:41;23.50;65.50
67820;DHT22;54618;52.018;5.576;2022-08-25T17:05:08;23.50;65.50
67820;DHT22;54618;52.018;5.576;2022-08-25T17:07:34;23.50;65.50
67820;DHT22;54618;52.018;5.576;2022-08-25T17:10:03;23.50;65.60
67820;DHT22;54618;52.018;5.576;2022-08-25T17:12:29;23.50;65.60
67820;DHT22;54618;52.018;5.576;2022-08-25T17:14:54;23.50;65.60
67820;DHT22;54618;52.018;5.576;2022-08-25T17:17:20;23.50;65.60
67820;DHT22;54618;52.018;5.576;2022-08-25T17:19:46;23.50;65.60
67820;DHT22;54618;52.018;5.576;2022-08-25T17:22:12;23.50;65.60
67820;DHT22;54618;52.018;5.576;2022-08-25T17:24:41;23.50;65.60
67820;DHT22;54618;52.018;5.576;2022-08-25T17:27:07;23.50;65.60
67820;DHT22;54618;52.018;5.576;2022-08-25T17:29:33;23.50;65.70
67820;DHT22;54618;52.018;5.576;2022-08-25T17:31:59;23.50;65.70
67820;DHT22;54618;52.018;5.576;2022-08-25T17:34:25;23.50;65.70
67820;DHT22;54618;52.018;5.576;2022-08-25T17:36:51;23.50;65.70
67820;DHT22;54618;52.018;5.576;2022-08-25T17:39:19;23.50;65.70
67820;DHT22;54618;52.018;5.576;2022-08-25T17:41:45;23.50;65.80